My Meet Scores
Justene Weil, St. Charles Gymnastics Academy - MyMeetScores.com
Top100 | Top Teams | Upcoming Meets | Completed Meets | Latest | Add Scores | Help| Support | Bookmark and Share

Justene Weil, St. Charles Gymnastics Academy
Personal Bests
LevelVault BarsBeamFloorAA
XB9.3009.675 9.6259.40037.700
XG9.0009.300 9.0009.30036.125
XS9.3009.750 9.6759.50037.975
Meet Scores
Date Meet Team Session Level Division Vault Bars Beam Floor AA
2020-02-28 MEGA Spring Invite 2020 St. Charles Gymnastics Academy 1 XG Junior A 8.650 16T 9.175 16 7.350 21 8.800 17 33.975 20
2020-02-21 Great Western Invitational - Women's St. Charles Gymnastics Academy 07 XG Buckaroo 8.000 21 9.200 14 9.000 11 9.300 16 35.500 16
2020-02-07 SCGA Classic St. Charles Gymnastics Academy 2 XG child 8.850 8 9.300 6 8.250 8 9.100 5 35.500 6
2020-01-24 King Arthur Invitational St. Charles Gymnastics Academy 11 XG JR A 8.750 10T 9.075 13 8.100 14 9.075 14 35.000 14
2020-01-10 St Jude Benefit Meet St. Charles Gymnastics Academy 4C XG Jr A 9.000 14 9.275 7 8.700 15 9.150 14 36.125 12
2019-12-13 2019 St Nick St. Charles Gymnastics Academy 7B XG JrA 8.825 13 9.050 9 8.825 11 9.075 15 35.775 12
2019-04-13 2019 Illinois XB, XS State Championships St. Charles Gymnastics Academy 3 XS Ch B 9.175 18 9.750 7T 9.650 7T 9.400 7T 37.975 10
2019-03-01 NGCD Academy's 2019 Flip'r Invitational St. Charles Gymnastics Academy 8 XS Child A 9.200 3T 9.200 6T 9.650 1 9.375 5 37.425 3T
2019-02-15 Women's Midwest Open St. Charles Gymnastics Academy 11 XS Junior A 8.825 8 9.325 8 9.525 5 9.500 5T 37.175 6
2019-01-25 King Arthur Invitational St. Charles Gymnastics Academy 17 XS JR A 8.650 10 9.450 6T 9.675 2 9.350 6T 37.125 5T
2019-01-11 St Jude Benefit Meet St. Charles Gymnastics Academy 8C XS Jr A 8.450 15T 9.475 5 9.275 6 9.225 4 36.425 8
2018-12-07 St. Nick Invite 2018 St. Charles Gymnastics Academy 7B XS JrA 9.300 4 9.600 6 9.425 3 9.300 7 37.625 4
2018-04-06 XCEL State Championships St. Charles Gymnastics Academy 11 XB CH A 9.200 9T 9.525 10T 9.625 4 9.350 8T 37.700 5T
2018-03-02 2018 Flip'r Invitational St. Charles Gymnastics Academy 5 XB Child 9.050 2 9.500 1 9.050 4 9.325 2 36.925 2
2018-02-23 Kinetic Classic St. Charles Gymnastics Academy 5 XB Younger 8.850 45T 9.600 9T 9.575 10* 9.050 54T 37.075 20T
2018-02-16 Big Classic St. Charles Gymnastics Academy 8A XB Junior A 9.100 11T 9.175 13 9.400 7 9.200 7T 36.875 10
2018-01-26 King Arthur Invitational St. Charles Gymnastics Academy 10 XB All 8.750 6T 9.675 4T 9.000 7 8.950 8T 36.375 7
2018-01-12 St Jude Benefit Meet St. Charles Gymnastics Academy 7C XB JrA 8.750 10T 9.350 3 9.125 4 9.050 14 36.275 6
2017-12-01 Ultimate Wish Classic St. Charles Gymnastics Academy 14 XB All 9.300 4T 9.475 5 8.750 7 9.400 7 36.925 7
2017-11-17 SCGA Classic St. Charles Gymnastics Academy 4 XB JrA 8.075 9 9.350 4 8.650 6 8.850 6 34.925 6
Get your scores on
a t-shirt, pin, or hoodie

www.lazysuits.com